sensor_id;sensor_type;location;lat;lon;timestamp;temperature;humidity
54168;DHT22;68429;50.958;3.592;2024-01-06T00:01:38;6.60;99.90
54168;DHT22;68429;50.958;3.592;2024-01-06T00:04:04;6.60;99.90
54168;DHT22;68429;50.958;3.592;2024-01-06T00:06:30;6.80;99.90
54168;DHT22;68429;50.958;3.592;2024-01-06T00:08:56;6.60;99.90
54168;DHT22;68429;50.958;3.592;2024-01-06T00:11:22;6.70;99.90
54168;DHT22;68429;50.958;3.592;2024-01-06T00:13:48;6.70;99.90
54168;DHT22;68429;50.958;3.592;2024-01-06T00:16:17;6.70;99.90
54168;DHT22;68429;50.958;3.592;2024-01-06T00:18:43;6.70;99.90
54168;DHT22;68429;50.958;3.592;2024-01-06T00:21:09;6.80;99.90
54168;DHT22;68429;50.958;3.592;2024-01-06T00:23:34;6.70;99.90
54168;DHT22;68429;50.958;3.592;2024-01-06T00:26:00;6.70;99.90
54168;DHT22;68429;50.958;3.592;2024-01-06T00:28:26;6.60;99.90
54168;DHT22;68429;50.958;3.592;2024-01-06T00:30:51;6.70;99.90
54168;DHT22;68429;50.958;3.592;2024-01-06T00:33:17;6.70;99.90
54168;DHT22;68429;50.958;3.592;2024-01-06T00:35:42;6.80;99.90
54168;DHT22;68429;50.958;3.592;2024-01-06T00:38:08;6.70;99.90
54168;DHT22;68429;50.958;3.592;2024-01-06T00:40:34;6.80;99.90
54168;DHT22;68429;50.958;3.592;2024-01-06T00:42:59;6.80;99.90
54168;DHT22;68429;50.958;3.592;2024-01-06T00:45:25;6.80;99.90
54168;DHT22;68429;50.958;3.592;2024-01-06T00:47:51;6.90;99.90
54168;DHT22;68429;50.958;3.592;2024-01-06T00:50:18;6.80;99.90
54168;DHT22;68429;50.958;3.592;2024-01-06T00:52:44;6.80;99.90
54168;DHT22;68429;50.958;3.592;2024-01-06T00:55:11;6.80;99.90
54168;DHT22;68429;50.958;3.592;2024-01-06T00:57:36;6.90;99.90
54168;DHT22;68429;50.958;3.592;2024-01-06T01:00:04;6.90;99.90
54168;DHT22;68429;50.958;3.592;2024-01-06T01:02:31;6.90;99.90
54168;DHT22;68429;50.958;3.592;2024-01-06T01:04:56;6.90;99.90
54168;DHT22;68429;50.958;3.592;2024-01-06T01:07:23;6.90;99.90
54168;DHT22;68429;50.958;3.592;2024-01-06T01:09:49;6.80;99.90
54168;DHT22;68429;50.958;3.592;2024-01-06T01:12:14;6.90;99.90
54168;DHT22;68429;50.958;3.592;2024-01-06T01:14:40;6.80;99.90
54168;DHT22;68429;50.958;3.592;2024-01-06T01:17:05;6.80;99.90
54168;DHT22;68429;50.958;3.592;2024-01-06T01:19:31;6.90;99.90
54168;DHT22;68429;50.958;3.592;2024-01-06T01:21:57;6.80;99.90
54168;DHT22;68429;50.958;3.592;2024-01-06T01:24:22;6.90;99.90
54168;DHT22;68429;50.958;3.592;2024-01-06T01:26:49;6.90;99.90
54168;DHT22;68429;50.958;3.592;2024-01-06T01:29:15;6.90;99.90
54168;DHT22;68429;50.958;3.592;2024-01-06T01:31:40;7.00;99.90
54168;DHT22;68429;50.958;3.592;2024-01-06T01:34:06;7.00;99.90
54168;DHT22;68429;50.958;3.592;2024-01-06T01:36:32;7.00;99.90
54168;DHT22;68429;50.958;3.592;2024-01-06T01:38:57;6.90;99.90
54168;DHT22;68429;50.958;3.592;2024-01-06T01:41:23;6.90;99.90
54168;DHT22;68429;50.958;3.592;2024-01-06T01:43:48;6.90;99.90
54168;DHT22;68429;50.958;3.592;2024-01-06T01:46:14;7.00;99.90
54168;DHT22;68429;50.958;3.592;2024-01-06T01:48:40;6.90;99.90
54168;DHT22;68429;50.958;3.592;2024-01-06T01:51:06;6.90;99.90
54168;DHT22;68429;50.958;3.592;2024-01-06T01:53:33;6.90;99.90
54168;DHT22;68429;50.958;3.592;2024-01-06T01:55:58;6.90;99.90
54168;DHT22;68429;50.958;3.592;2024-01-06T01:58:24;7.00;99.90
54168;DHT22;68429;50.958;3.592;2024-01-06T02:00:50;6.90;99.90
54168;DHT22;68429;50.958;3.592;2024-01-06T02:03:16;6.90;99.90
54168;DHT22;68429;50.958;3.592;2024-01-06T02:05:42;6.80;99.90
54168;DHT22;68429;50.958;3.592;2024-01-06T02:08:08;6.80;99.90
54168;DHT22;68429;50.958;3.592;2024-01-06T02:10:33;6.80;99.90
54168;DHT22;68429;50.958;3.592;2024-01-06T02:13:19;6.70;99.90
54168;DHT22;68429;50.958;3.592;2024-01-06T02:15:45;6.70;99.90
54168;DHT22;68429;50.958;3.592;2024-01-06T02:18:11;6.70;99.90
54168;DHT22;68429;50.958;3.592;2024-01-06T02:20:37;6.70;99.90
54168;DHT22;68429;50.958;3.592;2024-01-06T02:23:03;6.80;99.90
54168;DHT22;68429;50.958;3.592;2024-01-06T02:25:28;6.80;99.90
54168;DHT22;68429;50.958;3.592;2024-01-06T02:27:55;6.80;99.90
54168;DHT22;68429;50.958;3.592;2024-01-06T02:30:20;6.80;99.90
54168;DHT22;68429;50.958;3.592;2024-01-06T02:32:46;6.80;99.90
54168;DHT22;68429;50.958;3.592;2024-01-06T02:35:12;6.80;99.90
54168;DHT22;68429;50.958;3.592;2024-01-06T02:37:37;6.80;99.90
54168;DHT22;68429;50.958;3.592;2024-01-06T02:40:03;6.90;99.90
54168;DHT22;68429;50.958;3.592;2024-01-06T02:42:29;6.90;99.90
54168;DHT22;68429;50.958;3.592;2024-01-06T02:44:55;6.90;99.90
54168;DHT22;68429;50.958;3.592;2024-01-06T02:47:20;6.90;99.90
54168;DHT22;68429;50.958;3.592;2024-01-06T02:49:46;6.90;99.90
54168;DHT22;68429;50.958;3.592;2024-01-06T02:52:12;6.90;99.90
54168;DHT22;68429;50.958;3.592;2024-01-06T02:54:37;6.90;99.90
54168;DHT22;68429;50.958;3.592;2024-01-06T02:57:03;6.80;99.90
54168;DHT22;68429;50.958;3.592;2024-01-06T02:59:28;6.80;99.90
54168;DHT22;68429;50.958;3.592;2024-01-06T03:01:54;6.80;99.90
54168;DHT22;68429;50.958;3.592;2024-01-06T03:04:20;6.80;99.90
54168;DHT22;68429;50.958;3.592;2024-01-06T03:06:45;6.80;99.90
54168;DHT22;68429;50.958;3.592;2024-01-06T03:09:17;6.90;99.90
54168;DHT22;68429;50.958;3.592;2024-01-06T03:11:44;6.90;99.90
54168;DHT22;68429;50.958;3.592;2024-01-06T03:14:09;6.80;99.90
54168;DHT22;68429;50.958;3.592;2024-01-06T03:16:35;6.70;99.90
54168;DHT22;68429;50.958;3.592;2024-01-06T03:19:00;6.80;99.90
54168;DHT22;68429;50.958;3.592;2024-01-06T03:21:26;6.80;99.90
54168;DHT22;68429;50.958;3.592;2024-01-06T03:23:52;6.90;99.90
54168;DHT22;68429;50.958;3.592;2024-01-06T03:26:18;6.90;99.90
54168;DHT22;68429;50.958;3.592;2024-01-06T03:28:43;6.80;99.90
54168;DHT22;68429;50.958;3.592;2024-01-06T03:31:09;6.80;99.90
54168;DHT22;68429;50.958;3.592;2024-01-06T03:33:34;6.80;99.90
54168;DHT22;68429;50.958;3.592;2024-01-06T03:36:07;6.80;99.90
54168;DHT22;68429;50.958;3.592;2024-01-06T03:38:33;6.90;99.90
54168;DHT22;68429;50.958;3.592;2024-01-06T03:40:59;6.90;99.90
54168;DHT22;68429;50.958;3.592;2024-01-06T03:43:25;7.10;99.90
54168;DHT22;68429;50.958;3.592;2024-01-06T03:45:50;6.90;99.90
54168;DHT22;68429;50.958;3.592;2024-01-06T03:48:16;7.00;99.90
54168;DHT22;68429;50.958;3.592;2024-01-06T03:50:42;7.10;99.90
54168;DHT22;68429;50.958;3.592;2024-01-06T03:53:07;7.00;99.90
54168;DHT22;68429;50.958;3.592;2024-01-06T03:55:33;7.20;99.90
54168;DHT22;68429;50.958;3.592;2024-01-06T03:57:59;7.20;99.90
54168;DHT22;68429;50.958;3.592;2024-01-06T04:00:25;7.20;99.90
54168;DHT22;68429;50.958;3.592;2024-01-06T04:02:51;7.50;99.90
54168;DHT22;68429;50.958;3.592;2024-01-06T04:05:17;7.50;99.90
54168;DHT22;68429;50.958;3.592;2024-01-06T04:07:43;7.40;99.90
54168;DHT22;68429;50.958;3.592;2024-01-06T04:10:08;7.50;99.90
54168;DHT22;68429;50.958;3.592;2024-01-06T04:12:34;7.40;99.90
54168;DHT22;68429;50.958;3.592;2024-01-06T04:15:00;7.20;99.90
54168;DHT22;68429;50.958;3.592;2024-01-06T04:17:25;7.10;99.90
54168;DHT22;68429;50.958;3.592;2024-01-06T04:19:52;7.10;99.90
54168;DHT22;68429;50.958;3.592;2024-01-06T04:22:18;7.00;99.90
54168;DHT22;68429;50.958;3.592;2024-01-06T04:24:44;7.00;99.90
54168;DHT22;68429;50.958;3.592;2024-01-06T04:27:10;7.00;99.90
54168;DHT22;68429;50.958;3.592;2024-01-06T04:29:35;7.00;99.90
54168;DHT22;68429;50.958;3.592;2024-01-06T04:32:01;7.00;99.90
54168;DHT22;68429;50.958;3.592;2024-01-06T04:34:27;6.90;99.90
54168;DHT22;68429;50.958;3.592;2024-01-06T04:36:52;6.90;99.90
54168;DHT22;68429;50.958;3.592;2024-01-06T04:39:18;7.10;99.90
54168;DHT22;68429;50.958;3.592;2024-01-06T04:41:44;7.00;99.90
54168;DHT22;68429;50.958;3.592;2024-01-06T04:44:10;6.90;99.90
54168;DHT22;68429;50.958;3.592;2024-01-06T04:46:35;6.90;99.90
54168;DHT22;68429;50.958;3.592;2024-01-06T04:49:01;6.80;99.90
54168;DHT22;68429;50.958;3.592;2024-01-06T04:51:26;6.70;99.90
54168;DHT22;68429;50.958;3.592;2024-01-06T04:53:52;6.80;99.90
54168;DHT22;68429;50.958;3.592;2024-01-06T04:56:18;6.90;99.90
54168;DHT22;68429;50.958;3.592;2024-01-06T04:58:44;6.80;99.90
54168;DHT22;68429;50.958;3.592;2024-01-06T05:01:10;6.90;99.90
54168;DHT22;68429;50.958;3.592;2024-01-06T05:03:35;6.90;99.90
54168;DHT22;68429;50.958;3.592;2024-01-06T05:06:01;6.90;99.90
54168;DHT22;68429;50.958;3.592;2024-01-06T05:08:27;6.90;99.90
54168;DHT22;68429;50.958;3.592;2024-01-06T05:10:53;6.90;99.90
54168;DHT22;68429;50.958;3.592;2024-01-06T05:13:19;7.10;99.90
54168;DHT22;68429;50.958;3.592;2024-01-06T05:15:45;7.00;99.90
54168;DHT22;68429;50.958;3.592;2024-01-06T05:18:10;6.90;99.90
54168;DHT22;68429;50.958;3.592;2024-01-06T05:20:36;7.10;99.90
54168;DHT22;68429;50.958;3.592;2024-01-06T05:23:01;7.10;99.90
54168;DHT22;68429;50.958;3.592;2024-01-06T05:25:27;7.10;99.90
54168;DHT22;68429;50.958;3.592;2024-01-06T05:27:53;7.10;99.90
54168;DHT22;68429;50.958;3.592;2024-01-06T05:30:18;7.10;99.90
54168;DHT22;68429;50.958;3.592;2024-01-06T05:32:44;7.20;99.90
54168;DHT22;68429;50.958;3.592;2024-01-06T05:35:09;7.30;99.90
54168;DHT22;68429;50.958;3.592;2024-01-06T05:37:35;7.40;99.90
54168;DHT22;68429;50.958;3.592;2024-01-06T05:40:01;7.40;99.90
54168;DHT22;68429;50.958;3.592;2024-01-06T05:42:29;7.30;99.90
54168;DHT22;68429;50.958;3.592;2024-01-06T05:44:54;7.30;99.90
54168;DHT22;68429;50.958;3.592;2024-01-06T05:47:20;7.20;99.90
54168;DHT22;68429;50.958;3.592;2024-01-06T05:49:46;7.10;99.90
54168;DHT22;68429;50.958;3.592;2024-01-06T05:52:11;7.20;99.90
54168;DHT22;68429;50.958;3.592;2024-01-06T05:54:40;7.30;99.90
54168;DHT22;68429;50.958;3.592;2024-01-06T05:57:07;7.40;99.90
54168;DHT22;68429;50.958;3.592;2024-01-06T05:59:33;7.50;99.90
54168;DHT22;68429;50.958;3.592;2024-01-06T06:01:59;7.50;99.90
54168;DHT22;68429;50.958;3.592;2024-01-06T06:04:25;7.50;99.90
54168;DHT22;68429;50.958;3.592;2024-01-06T06:06:51;7.60;99.90
54168;DHT22;68429;50.958;3.592;2024-01-06T06:09:16;7.70;99.90
54168;DHT22;68429;50.958;3.592;2024-01-06T06:11:42;7.70;99.90
54168;DHT22;68429;50.958;3.592;2024-01-06T06:14:09;7.70;99.90
54168;DHT22;68429;50.958;3.592;2024-01-06T06:16:34;7.70;99.90
54168;DHT22;68429;50.958;3.592;2024-01-06T06:19:00;7.60;99.90
54168;DHT22;68429;50.958;3.592;2024-01-06T06:21:25;7.60;99.90
54168;DHT22;68429;50.958;3.592;2024-01-06T06:23:51;7.40;99.90
54168;DHT22;68429;50.958;3.592;2024-01-06T06:26:17;7.50;99.90
54168;DHT22;68429;50.958;3.592;2024-01-06T06:28:43;7.50;99.90
54168;DHT22;68429;50.958;3.592;2024-01-06T06:31:08;7.60;99.90
54168;DHT22;68429;50.958;3.592;2024-01-06T06:33:34;7.30;99.90
54168;DHT22;68429;50.958;3.592;2024-01-06T06:36:00;7.50;99.90
54168;DHT22;68429;50.958;3.592;2024-01-06T06:38:27;7.50;99.90
54168;DHT22;68429;50.958;3.592;2024-01-06T06:40:53;7.40;99.90
54168;DHT22;68429;50.958;3.592;2024-01-06T06:43:18;7.50;99.90
54168;DHT22;68429;50.958;3.592;2024-01-06T06:45:44;7.20;99.90
54168;DHT22;68429;50.958;3.592;2024-01-06T06:48:10;7.30;99.90
54168;DHT22;68429;50.958;3.592;2024-01-06T06:50:36;7.30;99.90
54168;DHT22;68429;50.958;3.592;2024-01-06T06:53:02;7.30;99.90
54168;DHT22;68429;50.958;3.592;2024-01-06T06:55:27;7.30;99.90
54168;DHT22;68429;50.958;3.592;2024-01-06T06:57:53;7.10;99.90
54168;DHT22;68429;50.958;3.592;2024-01-06T07:00:19;7.20;99.90
54168;DHT22;68429;50.958;3.592;2024-01-06T07:02:45;7.30;99.90
54168;DHT22;68429;50.958;3.592;2024-01-06T07:05:11;7.20;99.90
54168;DHT22;68429;50.958;3.592;2024-01-06T07:07:36;7.20;99.90
54168;DHT22;68429;50.958;3.592;2024-01-06T07:10:04;7.40;99.90
54168;DHT22;68429;50.958;3.592;2024-01-06T07:12:33;7.50;99.90
54168;DHT22;68429;50.958;3.592;2024-01-06T07:14:59;7.30;99.90
54168;DHT22;68429;50.958;3.592;2024-01-06T07:17:25;7.30;99.90
54168;DHT22;68429;50.958;3.592;2024-01-06T07:19:51;7.20;99.90
54168;DHT22;68429;50.958;3.592;2024-01-06T07:22:16;7.20;99.90
54168;DHT22;68429;50.958;3.592;2024-01-06T07:24:43;7.30;99.90
54168;DHT22;68429;50.958;3.592;2024-01-06T07:27:09;7.40;99.90
54168;DHT22;68429;50.958;3.592;2024-01-06T07:29:35;7.50;99.90
54168;DHT22;68429;50.958;3.592;2024-01-06T07:32:01;7.50;99.90
54168;DHT22;68429;50.958;3.592;2024-01-06T07:34:26;7.60;99.90
54168;DHT22;68429;50.958;3.592;2024-01-06T07:36:52;7.50;99.90
54168;DHT22;68429;50.958;3.592;2024-01-06T07:39:18;7.40;99.90
54168;DHT22;68429;50.958;3.592;2024-01-06T07:41:43;7.30;99.90
54168;DHT22;68429;50.958;3.592;2024-01-06T07:44:12;7.30;99.90
54168;DHT22;68429;50.958;3.592;2024-01-06T07:46:38;7.30;99.90
54168;DHT22;68429;50.958;3.592;2024-01-06T07:49:06;7.10;99.90
54168;DHT22;68429;50.958;3.592;2024-01-06T07:51:32;7.00;99.90
54168;DHT22;68429;50.958;3.592;2024-01-06T07:53:59;7.00;99.90
54168;DHT22;68429;50.958;3.592;2024-01-06T07:56:25;7.00;99.90
54168;DHT22;68429;50.958;3.592;2024-01-06T07:58:51;7.10;99.90
54168;DHT22;68429;50.958;3.592;2024-01-06T08:01:18;7.30;99.90
54168;DHT22;68429;50.958;3.592;2024-01-06T08:03:43;7.20;99.90
54168;DHT22;68429;50.958;3.592;2024-01-06T08:06:10;7.30;99.90
54168;DHT22;68429;50.958;3.592;2024-01-06T08:08:35;7.20;99.90
54168;DHT22;68429;50.958;3.592;2024-01-06T08:11:01;7.30;99.90
54168;DHT22;68429;50.958;3.592;2024-01-06T08:13:27;7.40;99.90
54168;DHT22;68429;50.958;3.592;2024-01-06T08:15:52;7.40;99.90
54168;DHT22;68429;50.958;3.592;2024-01-06T08:18:18;7.40;99.90
54168;DHT22;68429;50.958;3.592;2024-01-06T08:20:44;7.30;99.90
54168;DHT22;68429;50.958;3.592;2024-01-06T08:23:09;7.20;99.90
54168;DHT22;68429;50.958;3.592;2024-01-06T08:25:36;7.30;99.90
54168;DHT22;68429;50.958;3.592;2024-01-06T08:28:01;7.20;99.90
54168;DHT22;68429;50.958;3.592;2024-01-06T08:30:27;7.10;99.90
54168;DHT22;68429;50.958;3.592;2024-01-06T08:32:53;7.20;99.90
54168;DHT22;68429;50.958;3.592;2024-01-06T08:35:19;7.30;99.90
54168;DHT22;68429;50.958;3.592;2024-01-06T08:37:45;7.20;99.90
54168;DHT22;68429;50.958;3.592;2024-01-06T08:40:11;7.10;99.90
54168;DHT22;68429;50.958;3.592;2024-01-06T08:42:37;7.10;99.90
54168;DHT22;68429;50.958;3.592;2024-01-06T08:45:04;7.10;99.90
54168;DHT22;68429;50.958;3.592;2024-01-06T08:47:30;7.30;99.90
54168;DHT22;68429;50.958;3.592;2024-01-06T08:49:56;7.40;99.90
54168;DHT22;68429;50.958;3.592;2024-01-06T08:52:22;7.40;99.90
54168;DHT22;68429;50.958;3.592;2024-01-06T08:54:47;7.40;99.90
54168;DHT22;68429;50.958;3.592;2024-01-06T08:57:15;7.30;99.90
54168;DHT22;68429;50.958;3.592;2024-01-06T08:59:41;7.30;99.90
54168;DHT22;68429;50.958;3.592;2024-01-06T09:02:06;7.20;99.90
54168;DHT22;68429;50.958;3.592;2024-01-06T09:04:33;7.20;99.90
54168;DHT22;68429;50.958;3.592;2024-01-06T09:06:58;7.30;99.90
54168;DHT22;68429;50.958;3.592;2024-01-06T09:09:24;7.20;99.90
54168;DHT22;68429;50.958;3.592;2024-01-06T09:11:50;7.30;99.90
54168;DHT22;68429;50.958;3.592;2024-01-06T09:14:18;7.40;99.90
54168;DHT22;68429;50.958;3.592;2024-01-06T09:16:43;7.30;99.90
54168;DHT22;68429;50.958;3.592;2024-01-06T09:19:09;7.30;99.90
54168;DHT22;68429;50.958;3.592;2024-01-06T09:21:34;7.30;99.90
54168;DHT22;68429;50.958;3.592;2024-01-06T09:24:01;7.30;99.90
54168;DHT22;68429;50.958;3.592;2024-01-06T09:26:32;7.30;99.90
54168;DHT22;68429;50.958;3.592;2024-01-06T09:28:58;7.20;99.90
54168;DHT22;68429;50.958;3.592;2024-01-06T09:31:23;7.20;99.90
54168;DHT22;68429;50.958;3.592;2024-01-06T09:33:49;7.00;99.90
54168;DHT22;68429;50.958;3.592;2024-01-06T09:36:15;6.90;99.90
54168;DHT22;68429;50.958;3.592;2024-01-06T09:38:41;7.00;99.90
54168;DHT22;68429;50.958;3.592;2024-01-06T09:41:07;6.90;99.90
54168;DHT22;68429;50.958;3.592;2024-01-06T09:43:33;6.80;99.90
54168;DHT22;68429;50.958;3.592;2024-01-06T09:46:25;6.90;99.90
54168;DHT22;68429;50.958;3.592;2024-01-06T09:48:52;7.00;99.90
54168;DHT22;68429;50.958;3.592;2024-01-06T09:51:19;7.00;99.90
54168;DHT22;68429;50.958;3.592;2024-01-06T09:56:20;7.10;99.90
54168;DHT22;68429;50.958;3.592;2024-01-06T09:58:47;7.20;99.90
54168;DHT22;68429;50.958;3.592;2024-01-06T10:01:13;7.30;99.90
54168;DHT22;68429;50.958;3.592;2024-01-06T10:03:40;7.40;99.90
54168;DHT22;68429;50.958;3.592;2024-01-06T10:06:06;7.30;99.90
54168;DHT22;68429;50.958;3.592;2024-01-06T10:08:31;7.40;99.90
54168;DHT22;68429;50.958;3.592;2024-01-06T10:11:00;7.40;99.90
54168;DHT22;68429;50.958;3.592;2024-01-06T10:13:26;7.50;99.90
54168;DHT22;68429;50.958;3.592;2024-01-06T10:15:54;7.30;99.90
54168;DHT22;68429;50.958;3.592;2024-01-06T10:18:20;7.30;99.90
54168;DHT22;68429;50.958;3.592;2024-01-06T10:20:47;7.30;99.90
54168;DHT22;68429;50.958;3.592;2024-01-06T10:23:13;7.20;99.90
54168;DHT22;68429;50.958;3.592;2024-01-06T10:25:38;7.10;99.90
54168;DHT22;68429;50.958;3.592;2024-01-06T10:28:06;7.00;99.90
54168;DHT22;68429;50.958;3.592;2024-01-06T10:30:31;7.10;99.90
54168;DHT22;68429;50.958;3.592;2024-01-06T10:32:57;7.10;99.90
54168;DHT22;68429;50.958;3.592;2024-01-06T10:35:24;7.10;99.90
54168;DHT22;68429;50.958;3.592;2024-01-06T10:37:50;7.20;99.90
54168;DHT22;68429;50.958;3.592;2024-01-06T10:40:17;7.20;99.90
54168;DHT22;68429;50.958;3.592;2024-01-06T10:42:43;7.10;99.90
54168;DHT22;68429;50.958;3.592;2024-01-06T10:45:13;7.00;99.90
54168;DHT22;68429;50.958;3.592;2024-01-06T10:47:41;7.00;99.90
54168;DHT22;68429;50.958;3.592;2024-01-06T10:50:11;6.80;99.90
54168;DHT22;68429;50.958;3.592;2024-01-06T10:52:40;6.80;99.90
54168;DHT22;68429;50.958;3.592;2024-01-06T10:55:07;6.80;99.90
54168;DHT22;68429;50.958;3.592;2024-01-06T10:57:33;6.80;99.90
54168;DHT22;68429;50.958;3.592;2024-01-06T11:00:00;6.60;99.90
54168;DHT22;68429;50.958;3.592;2024-01-06T11:02:26;6.50;99.90
54168;DHT22;68429;50.958;3.592;2024-01-06T11:04:53;6.60;99.90
54168;DHT22;68429;50.958;3.592;2024-01-06T11:07:22;6.80;99.90
54168;DHT22;68429;50.958;3.592;2024-01-06T11:12:28;6.70;99.90
54168;DHT22;68429;50.958;3.592;2024-01-06T11:14:53;6.80;99.90
54168;DHT22;68429;50.958;3.592;2024-01-06T11:17:49;7.00;99.90
54168;DHT22;68429;50.958;3.592;2024-01-06T11:20:26;7.10;99.90
54168;DHT22;68429;50.958;3.592;2024-01-06T11:22:52;7.20;99.90
54168;DHT22;68429;50.958;3.592;2024-01-06T11:25:21;7.30;99.90
54168;DHT22;68429;50.958;3.592;2024-01-06T11:27:49;7.50;99.90
54168;DHT22;68429;50.958;3.592;2024-01-06T11:30:22;7.50;99.90
54168;DHT22;68429;50.958;3.592;2024-01-06T11:32:50;7.60;99.90
54168;DHT22;68429;50.958;3.592;2024-01-06T11:35:18;7.60;99.90
54168;DHT22;68429;50.958;3.592;2024-01-06T11:45:37;7.50;99.90
54168;DHT22;68429;50.958;3.592;2024-01-06T11:48:05;7.50;99.90
54168;DHT22;68429;50.958;3.592;2024-01-06T11:50:33;7.50;99.90
54168;DHT22;68429;50.958;3.592;2024-01-06T11:52:59;7.50;99.90
54168;DHT22;68429;50.958;3.592;2024-01-06T11:55:26;7.40;99.90
54168;DHT22;68429;50.958;3.592;2024-01-06T11:57:57;7.40;99.90
54168;DHT22;68429;50.958;3.592;2024-01-06T12:00:27;7.40;99.90
54168;DHT22;68429;50.958;3.592;2024-01-06T12:03:00;7.40;99.90
54168;DHT22;68429;50.958;3.592;2024-01-06T12:05:27;7.40;99.90
54168;DHT22;68429;50.958;3.592;2024-01-06T12:07:57;7.40;99.90
54168;DHT22;68429;50.958;3.592;2024-01-06T12:10:25;7.20;99.90
54168;DHT22;68429;50.958;3.592;2024-01-06T12:13:04;7.30;99.90
54168;DHT22;68429;50.958;3.592;2024-01-06T12:15:31;7.30;99.90
54168;DHT22;68429;50.958;3.592;2024-01-06T12:17:58;7.30;99.90
54168;DHT22;68429;50.958;3.592;2024-01-06T12:20:25;7.40;99.90
54168;DHT22;68429;50.958;3.592;2024-01-06T12:22:55;7.50;99.90
54168;DHT22;68429;50.958;3.592;2024-01-06T12:25:22;7.70;99.90
54168;DHT22;68429;50.958;3.592;2024-01-06T12:27:48;7.60;99.90
54168;DHT22;68429;50.958;3.592;2024-01-06T12:30:14;7.50;99.90
54168;DHT22;68429;50.958;3.592;2024-01-06T12:32:45;7.50;99.90
54168;DHT22;68429;50.958;3.592;2024-01-06T12:35:11;7.70;99.90
54168;DHT22;68429;50.958;3.592;2024-01-06T12:37:38;7.70;99.90
54168;DHT22;68429;50.958;3.592;2024-01-06T12:40:04;7.70;99.90
54168;DHT22;68429;50.958;3.592;2024-01-06T12:42:30;7.90;99.90
54168;DHT22;68429;50.958;3.592;2024-01-06T12:44:56;8.00;99.90
54168;DHT22;68429;50.958;3.592;2024-01-06T12:47:21;8.10;99.90
54168;DHT22;68429;50.958;3.592;2024-01-06T12:49:47;8.10;99.90
54168;DHT22;68429;50.958;3.592;2024-01-06T12:52:13;8.10;99.90
54168;DHT22;68429;50.958;3.592;2024-01-06T12:54:39;7.90;99.90
54168;DHT22;68429;50.958;3.592;2024-01-06T12:57:07;7.80;99.90
54168;DHT22;68429;50.958;3.592;2024-01-06T12:59:32;7.70;99.90
54168;DHT22;68429;50.958;3.592;2024-01-06T13:01:58;7.60;99.90
54168;DHT22;68429;50.958;3.592;2024-01-06T13:04:23;7.50;99.90
54168;DHT22;68429;50.958;3.592;2024-01-06T13:06:49;7.50;99.90
54168;DHT22;68429;50.958;3.592;2024-01-06T13:09:15;7.50;99.90
54168;DHT22;68429;50.958;3.592;2024-01-06T13:11:42;7.50;99.90
54168;DHT22;68429;50.958;3.592;2024-01-06T13:14:08;7.40;99.90
54168;DHT22;68429;50.958;3.592;2024-01-06T13:16:34;7.30;99.90
54168;DHT22;68429;50.958;3.592;2024-01-06T13:19:01;7.20;99.90
54168;DHT22;68429;50.958;3.592;2024-01-06T13:21:27;7.30;99.90
54168;DHT22;68429;50.958;3.592;2024-01-06T13:23:54;7.40;99.90
54168;DHT22;68429;50.958;3.592;2024-01-06T13:26:26;7.40;99.90
54168;DHT22;68429;50.958;3.592;2024-01-06T13:28:54;7.40;99.90
54168;DHT22;68429;50.958;3.592;2024-01-06T13:31:20;7.50;99.90
54168;DHT22;68429;50.958;3.592;2024-01-06T13:33:46;7.40;99.90
54168;DHT22;68429;50.958;3.592;2024-01-06T13:36:12;7.40;99.90
54168;DHT22;68429;50.958;3.592;2024-01-06T13:38:38;7.50;99.90
54168;DHT22;68429;50.958;3.592;2024-01-06T13:41:04;7.70;99.90
54168;DHT22;68429;50.958;3.592;2024-01-06T13:43:29;7.90;99.90
54168;DHT22;68429;50.958;3.592;2024-01-06T13:45:57;8.10;99.90
54168;DHT22;68429;50.958;3.592;2024-01-06T13:48:23;8.10;99.90
54168;DHT22;68429;50.958;3.592;2024-01-06T13:50:49;7.80;99.90
54168;DHT22;68429;50.958;3.592;2024-01-06T13:53:15;7.80;99.90
54168;DHT22;68429;50.958;3.592;2024-01-06T13:55:41;7.70;99.90
54168;DHT22;68429;50.958;3.592;2024-01-06T13:58:07;7.60;99.90
54168;DHT22;68429;50.958;3.592;2024-01-06T14:00:35;7.60;99.90
54168;DHT22;68429;50.958;3.592;2024-01-06T14:03:01;7.40;99.90
54168;DHT22;68429;50.958;3.592;2024-01-06T14:05:26;7.40;99.90
54168;DHT22;68429;50.958;3.592;2024-01-06T14:07:53;7.50;99.90
54168;DHT22;68429;50.958;3.592;2024-01-06T14:10:19;7.70;99.90
54168;DHT22;68429;50.958;3.592;2024-01-06T14:12:45;7.60;99.90
54168;DHT22;68429;50.958;3.592;2024-01-06T14:15:10;7.60;99.90
54168;DHT22;68429;50.958;3.592;2024-01-06T14:17:36;7.70;99.90
54168;DHT22;68429;50.958;3.592;2024-01-06T14:20:02;7.60;99.90
54168;DHT22;68429;50.958;3.592;2024-01-06T14:22:27;7.60;99.90
54168;DHT22;68429;50.958;3.592;2024-01-06T14:24:53;7.50;99.90
54168;DHT22;68429;50.958;3.592;2024-01-06T14:27:19;7.50;99.90
54168;DHT22;68429;50.958;3.592;2024-01-06T14:29:45;7.50;99.90
54168;DHT22;68429;50.958;3.592;2024-01-06T14:32:12;7.40;99.90
54168;DHT22;68429;50.958;3.592;2024-01-06T14:34:38;7.20;99.90
54168;DHT22;68429;50.958;3.592;2024-01-06T14:37:05;7.20;99.90
54168;DHT22;68429;50.958;3.592;2024-01-06T14:39:30;7.00;99.90
54168;DHT22;68429;50.958;3.592;2024-01-06T14:41:56;7.00;99.90
54168;DHT22;68429;50.958;3.592;2024-01-06T14:44:22;7.00;99.90
54168;DHT22;68429;50.958;3.592;2024-01-06T14:46:48;7.00;99.90
54168;DHT22;68429;50.958;3.592;2024-01-06T14:49:16;7.00;99.90
54168;DHT22;68429;50.958;3.592;2024-01-06T14:51:42;7.10;99.90
54168;DHT22;68429;50.958;3.592;2024-01-06T14:54:07;7.10;99.90
54168;DHT22;68429;50.958;3.592;2024-01-06T14:56:37;6.90;99.90
54168;DHT22;68429;50.958;3.592;2024-01-06T14:59:04;6.80;99.90
54168;DHT22;68429;50.958;3.592;2024-01-06T15:01:30;6.80;99.90
54168;DHT22;68429;50.958;3.592;2024-01-06T15:03:56;6.90;99.90
54168;DHT22;68429;50.958;3.592;2024-01-06T15:06:21;6.90;99.90
54168;DHT22;68429;50.958;3.592;2024-01-06T15:08:47;6.80;99.90
54168;DHT22;68429;50.958;3.592;2024-01-06T15:11:14;6.70;99.90
54168;DHT22;68429;50.958;3.592;2024-01-06T15:13:39;6.60;99.90
54168;DHT22;68429;50.958;3.592;2024-01-06T15:16:06;6.60;99.90
54168;DHT22;68429;50.958;3.592;2024-01-06T15:18:32;6.60;99.90
54168;DHT22;68429;50.958;3.592;2024-01-06T15:20:58;6.70;99.90
54168;DHT22;68429;50.958;3.592;2024-01-06T15:23:24;6.60;99.90
54168;DHT22;68429;50.958;3.592;2024-01-06T15:25:50;6.50;99.90
54168;DHT22;68429;50.958;3.592;2024-01-06T15:28:15;6.60;99.90
54168;DHT22;68429;50.958;3.592;2024-01-06T15:30:41;6.60;99.90
54168;DHT22;68429;50.958;3.592;2024-01-06T15:33:07;6.50;99.90
54168;DHT22;68429;50.958;3.592;2024-01-06T15:35:33;6.50;99.90
54168;DHT22;68429;50.958;3.592;2024-01-06T15:37:58;6.40;99.90
54168;DHT22;68429;50.958;3.592;2024-01-06T15:40:24;6.40;99.90
54168;DHT22;68429;50.958;3.592;2024-01-06T15:42:50;6.40;99.90
54168;DHT22;68429;50.958;3.592;2024-01-06T15:45:16;6.40;99.90
54168;DHT22;68429;50.958;3.592;2024-01-06T15:47:41;6.50;99.90
54168;DHT22;68429;50.958;3.592;2024-01-06T15:50:07;6.60;99.90
54168;DHT22;68429;50.958;3.592;2024-01-06T15:52:34;6.60;99.90